KALO/ALO METAR and TAF weather

Enter ICAO airport designator
Station Type Date Time Source
KALO METAR 2021/10/22 18:54 UTC NOAA

KALO 221854Z 25007KT 10SM OVC080 08/02 A3007 RMK AO2 SLP188 T00830017


Station Type Date Time Source
KALO Decoded METAR 2021/10/22 18:54 UTC NOAA

WATERLOO MUNICIPAL AIRPORT, IA, United States (KALO) 42-33N 92-24W 264M
Oct 22, 2021 - 02:54 PM EDT / 2021.10.22 1854 UTC
Wind: from the WSW (250 degrees) at 8 MPH (7 KT):0
Visibility: 10 mile(s):0
Sky conditions: overcast
Temperature: 46.9 F (8.3 C)
Dew Point: 35.1 F (1.7 C)
Relative Humidity: 63%
Pressure (altimeter): 30.07 in. Hg (1018 hPa)
ob: KALO 221854Z 25007KT 10SM OVC080 08/02 A3007 RMK AO2 SLP188 T00830017
cycle: 19

Station Type Date Time Source
KALO TAF 2021/10/22 18:27 UTC NOAA

TAF KALO 221723Z 2218/2318 29005KT P6SM VCSH OVC100
TEMPO 2218/2220 3SM -RA
FM222100 31004KT P6SM BKN150

Example: see airport list